This is the latest recevied weather packets stored in our database for station/object WE1C. If no packets are shown the sender has not sent any weather packets the latest 10 day(s).
| Time | Temp. | Humidity | Pressure | Rain* | Wind** | Luminosity | Snow |
|---|---|---|---|---|---|---|---|
| 1778262617 | 13.33° C | 42% | 1038.3 hPa | 0 mm | - | 302 W/m² | - |
| 1778262315 | 12.78° C | 43% | 1038.5 hPa | 0 mm | - | 314 W/m² | - |
| 1778262011 | 13.33° C | 42% | 1038.2 hPa | 0 mm | - | 314 W/m² | - |
| 1778261708 | 13.33° C | 42% | 1038.3 hPa | 0 mm | - | 442 W/m² | - |
| 1778261404 | 13.33° C | 41% | 1038.3 hPa | 0 mm | - | 373 W/m² | - |
| 1778261102 | 12.78° C | 43% | 1038.4 hPa | 0 mm | - | 399 W/m² | - |
| 1778260798 | 13.33° C | 44% | 1038.4 hPa | 0 mm | - | 336 W/m² | - |
| 1778260495 | 14.44° C | 38% | 1038.2 hPa | 0 mm | - | 304 W/m² | - |
| 1778260191 | 13.89° C | 39% | 1038.3 hPa | 0 mm | - | 681 W/m² | - |
| 1778259889 | 15° C | 38% | 1038.2 hPa | 0 mm | - | 257 W/m² | - |
| 1778259585 | 14.44° C | 40% | 1038.2 hPa | 0 mm | - | 866 W/m² | - |
| 1778259284 | 13.89° C | 38% | 1038.2 hPa | 0 mm | - | 929 W/m² | - |
| 1778258979 | 13.89° C | 39% | 1038.5 hPa | 0 mm | - | 717 W/m² | - |
| 1778258676 | 15° C | 36% | 1038.3 hPa | 0 mm | - | 620 W/m² | - |
| 1778258373 | 13.89° C | 43% | 1038.5 hPa | 0 mm | - | 879 W/m² | - |
| 1778258071 | 13.89° C | 40% | 1038.5 hPa | 0 mm | - | 845 W/m² | - |
| 1778257766 | 13.89° C | 40% | 1038.7 hPa | 0 mm | - | 850 W/m² | - |
| 1778257464 | 13.33° C | 42% | 1038.5 hPa | 0 mm | - | 812 W/m² | - |
| 1778257161 | 14.44° C | 42% | 1038.7 hPa | 0 mm | - | 188 W/m² | - |
| 1778256858 | 13.89° C | 40% | 1038.5 hPa | 0 mm | - | 536 W/m² | - |
| 1778256555 | 13.33° C | 44% | 1038.7 hPa | 0 mm | - | 722 W/m² | - |
| 1778256254 | 13.33° C | 45% | 1038.9 hPa | 0 mm | - | 227 W/m² | - |
| 1778255949 | 12.22° C | 44% | 1038.9 hPa | 0 mm | - | 865 W/m² | - |
| 1778255647 | 12.22° C | 45% | 1038.9 hPa | 0 mm | - | 176 W/m² | - |
| 1778255344 | 13.33° C | 44% | 1038.9 hPa | 0 mm | - | 231 W/m² | - |
* Rain latest hour (hover to see other rain measurements)
** Current wind speed in m/s (hover to see current wind gust speed)